sensor_id;sensor_type;location;lat;lon;timestamp;P1;durP1;ratioP1;P2;durP2;ratioP2
75169;SDS011;63749;49.186;9.222;2023-03-23T00:01:20;3.55;;;1.70;;
75169;SDS011;63749;49.186;9.222;2023-03-23T00:03:47;3.25;;;1.50;;
75169;SDS011;63749;49.186;9.222;2023-03-23T00:06:15;3.67;;;1.40;;
75169;SDS011;63749;49.186;9.222;2023-03-23T00:08:42;3.50;;;1.40;;
75169;SDS011;63749;49.186;9.222;2023-03-23T00:11:13;3.83;;;1.30;;
75169;SDS011;63749;49.186;9.222;2023-03-23T00:13:40;4.82;;;1.60;;
75169;SDS011;63749;49.186;9.222;2023-03-23T00:16:06;3.72;;;1.50;;
75169;SDS011;63749;49.186;9.222;2023-03-23T00:18:42;3.23;;;1.10;;
75169;SDS011;63749;49.186;9.222;2023-03-23T00:21:18;2.83;;;1.30;;
75169;SDS011;63749;49.186;9.222;2023-03-23T00:23:44;2.28;;;1.20;;
75169;SDS011;63749;49.186;9.222;2023-03-23T00:26:10;4.50;;;1.20;;
75169;SDS011;63749;49.186;9.222;2023-03-23T00:28:36;2.37;;;1.20;;
75169;SDS011;63749;49.186;9.222;2023-03-23T00:31:04;2.47;;;1.20;;
75169;SDS011;63749;49.186;9.222;2023-03-23T00:33:34;2.08;;;1.20;;
75169;SDS011;63749;49.186;9.222;2023-03-23T00:36:06;3.55;;;1.30;;
75169;SDS011;63749;49.186;9.222;2023-03-23T00:38:33;3.78;;;1.42;;
75169;SDS011;63749;49.186;9.222;2023-03-23T00:40:59;4.80;;;1.40;;
75169;SDS011;63749;49.186;9.222;2023-03-23T00:43:29;2.58;;;1.20;;
75169;SDS011;63749;49.186;9.222;2023-03-23T00:45:56;3.00;;;1.40;;
75169;SDS011;63749;49.186;9.222;2023-03-23T00:48:26;2.40;;;1.25;;
75169;SDS011;63749;49.186;9.222;2023-03-23T00:50:52;1.83;;;1.13;;
75169;SDS011;63749;49.186;9.222;2023-03-23T00:53:18;2.13;;;1.25;;
75169;SDS011;63749;49.186;9.222;2023-03-23T00:55:44;2.40;;;1.30;;
75169;SDS011;63749;49.186;9.222;2023-03-23T00:58:11;2.73;;;1.30;;
75169;SDS011;63749;49.186;9.222;2023-03-23T01:00:38;2.47;;;1.30;;
75169;SDS011;63749;49.186;9.222;2023-03-23T01:03:05;2.80;;;1.30;;
75169;SDS011;63749;49.186;9.222;2023-03-23T01:05:35;2.85;;;1.23;;
75169;SDS011;63749;49.186;9.222;2023-03-23T01:08:01;1.70;;;1.10;;
75169;SDS011;63749;49.186;9.222;2023-03-23T01:10:27;2.73;;;1.20;;
75169;SDS011;63749;49.186;9.222;2023-03-23T01:12:53;3.10;;;1.20;;
75169;SDS011;63749;49.186;9.222;2023-03-23T01:15:19;2.78;;;1.20;;
75169;SDS011;63749;49.186;9.222;2023-03-23T01:17:45;2.13;;;1.20;;
75169;SDS011;63749;49.186;9.222;2023-03-23T01:20:12;2.90;;;1.20;;
75169;SDS011;63749;49.186;9.222;2023-03-23T01:22:40;1.60;;;1.10;;
75169;SDS011;63749;49.186;9.222;2023-03-23T01:25:06;1.77;;;1.10;;
75169;SDS011;63749;49.186;9.222;2023-03-23T01:27:32;2.05;;;1.10;;
75169;SDS011;63749;49.186;9.222;2023-03-23T01:29:57;2.67;;;1.10;;
75169;SDS011;63749;49.186;9.222;2023-03-23T01:32:23;2.08;;;1.13;;
75169;SDS011;63749;49.186;9.222;2023-03-23T01:34:48;2.00;;;1.27;;
75169;SDS011;63749;49.186;9.222;2023-03-23T01:37:13;2.37;;;1.13;;
75169;SDS011;63749;49.186;9.222;2023-03-23T01:39:40;2.40;;;1.25;;
75169;SDS011;63749;49.186;9.222;2023-03-23T01:42:07;2.40;;;1.10;;
75169;SDS011;63749;49.186;9.222;2023-03-23T01:46:58;2.87;;;1.40;;
75169;SDS011;63749;49.186;9.222;2023-03-23T01:49:25;2.28;;;1.30;;
75169;SDS011;63749;49.186;9.222;2023-03-23T01:52:00;2.17;;;1.30;;
75169;SDS011;63749;49.186;9.222;2023-03-23T01:54:29;3.57;;;1.33;;
75169;SDS011;63749;49.186;9.222;2023-03-23T01:56:56;3.30;;;1.30;;
75169;SDS011;63749;49.186;9.222;2023-03-23T01:59:29;2.58;;;1.45;;
75169;SDS011;63749;49.186;9.222;2023-03-23T02:01:55;2.07;;;1.30;;
75169;SDS011;63749;49.186;9.222;2023-03-23T02:04:21;2.50;;;1.45;;
75169;SDS011;63749;49.186;9.222;2023-03-23T02:06:49;2.53;;;1.50;;
75169;SDS011;63749;49.186;9.222;2023-03-23T02:09:16;2.60;;;1.30;;
75169;SDS011;63749;49.186;9.222;2023-03-23T02:11:42;2.17;;;1.50;;
75169;SDS011;63749;49.186;9.222;2023-03-23T02:14:08;2.37;;;1.23;;
75169;SDS011;63749;49.186;9.222;2023-03-23T02:21:47;3.78;;;1.60;;
75169;SDS011;63749;49.186;9.222;2023-03-23T02:30:29;4.00;;;1.50;;
75169;SDS011;63749;49.186;9.222;2023-03-23T02:35:46;2.88;;;1.52;;
75169;SDS011;63749;49.186;9.222;2023-03-23T02:38:35;3.13;;;1.50;;
75169;SDS011;63749;49.186;9.222;2023-03-23T02:41:02;3.35;;;2.03;;
75169;SDS011;63749;49.186;9.222;2023-03-23T02:43:30;2.97;;;1.60;;
75169;SDS011;63749;49.186;9.222;2023-03-23T02:45:59;1.80;;;1.47;;
75169;SDS011;63749;49.186;9.222;2023-03-23T02:48:27;3.08;;;1.40;;
75169;SDS011;63749;49.186;9.222;2023-03-23T02:50:55;2.10;;;1.65;;
75169;SDS011;63749;49.186;9.222;2023-03-23T02:53:21;3.15;;;1.50;;
75169;SDS011;63749;49.186;9.222;2023-03-23T02:55:49;4.20;;;1.88;;
75169;SDS011;63749;49.186;9.222;2023-03-23T02:58:17;6.30;;;2.83;;
75169;SDS011;63749;49.186;9.222;2023-03-23T03:00:43;6.68;;;2.90;;
75169;SDS011;63749;49.186;9.222;2023-03-23T03:03:11;3.17;;;1.75;;
75169;SDS011;63749;49.186;9.222;2023-03-23T03:05:42;4.85;;;1.20;;
75169;SDS011;63749;49.186;9.222;2023-03-23T03:11:08;2.47;;;1.30;;
75169;SDS011;63749;49.186;9.222;2023-03-23T03:13:51;3.67;;;1.50;;
75169;SDS011;63749;49.186;9.222;2023-03-23T03:19:03;2.78;;;1.50;;
75169;SDS011;63749;49.186;9.222;2023-03-23T03:21:33;2.83;;;1.47;;
75169;SDS011;63749;49.186;9.222;2023-03-23T03:24:03;4.07;;;1.60;;
75169;SDS011;63749;49.186;9.222;2023-03-23T03:26:30;3.30;;;1.70;;
75169;SDS011;63749;49.186;9.222;2023-03-23T03:28:59;3.22;;;1.55;;
75169;SDS011;63749;49.186;9.222;2023-03-23T03:31:28;3.23;;;1.60;;
75169;SDS011;63749;49.186;9.222;2023-03-23T03:33:57;2.30;;;1.52;;
75169;SDS011;63749;49.186;9.222;2023-03-23T03:36:27;2.95;;;1.50;;
75169;SDS011;63749;49.186;9.222;2023-03-23T03:38:59;3.73;;;1.47;;
75169;SDS011;63749;49.186;9.222;2023-03-23T03:41:28;5.10;;;1.77;;
75169;SDS011;63749;49.186;9.222;2023-03-23T03:43:54;3.40;;;1.60;;
75169;SDS011;63749;49.186;9.222;2023-03-23T03:46:20;4.10;;;1.60;;
75169;SDS011;63749;49.186;9.222;2023-03-23T03:48:46;2.90;;;1.40;;
75169;SDS011;63749;49.186;9.222;2023-03-23T03:51:11;2.70;;;1.50;;
75169;SDS011;63749;49.186;9.222;2023-03-23T03:53:36;3.00;;;1.80;;
75169;SDS011;63749;49.186;9.222;2023-03-23T03:56:02;2.97;;;1.60;;
75169;SDS011;63749;49.186;9.222;2023-03-23T03:58:27;3.67;;;1.85;;
75169;SDS011;63749;49.186;9.222;2023-03-23T04:00:56;2.63;;;1.63;;
75169;SDS011;63749;49.186;9.222;2023-03-23T04:03:23;3.45;;;1.67;;
75169;SDS011;63749;49.186;9.222;2023-03-23T04:05:49;4.20;;;1.80;;
75169;SDS011;63749;49.186;9.222;2023-03-23T04:08:14;3.47;;;1.70;;
75169;SDS011;63749;49.186;9.222;2023-03-23T04:10:39;3.93;;;1.80;;
75169;SDS011;63749;49.186;9.222;2023-03-23T04:13:05;2.97;;;1.77;;
75169;SDS011;63749;49.186;9.222;2023-03-23T04:15:31;4.33;;;1.80;;
75169;SDS011;63749;49.186;9.222;2023-03-23T04:17:56;4.00;;;1.73;;
75169;SDS011;63749;49.186;9.222;2023-03-23T04:20:22;3.00;;;1.63;;
75169;SDS011;63749;49.186;9.222;2023-03-23T04:22:49;3.38;;;1.83;;
75169;SDS011;63749;49.186;9.222;2023-03-23T04:25:15;2.67;;;1.80;;
75169;SDS011;63749;49.186;9.222;2023-03-23T04:27:45;5.93;;;1.90;;
75169;SDS011;63749;49.186;9.222;2023-03-23T04:30:17;2.97;;;1.77;;
75169;SDS011;63749;49.186;9.222;2023-03-23T04:32:44;2.58;;;1.80;;
75169;SDS011;63749;49.186;9.222;2023-03-23T04:35:10;2.80;;;1.93;;
75169;SDS011;63749;49.186;9.222;2023-03-23T04:37:37;2.55;;;1.73;;
75169;SDS011;63749;49.186;9.222;2023-03-23T04:40:03;6.67;;;1.80;;
75169;SDS011;63749;49.186;9.222;2023-03-23T04:42:35;5.50;;;1.90;;
75169;SDS011;63749;49.186;9.222;2023-03-23T04:45:02;3.40;;;1.77;;
75169;SDS011;63749;49.186;9.222;2023-03-23T04:47:31;5.47;;;1.83;;
75169;SDS011;63749;49.186;9.222;2023-03-23T04:49:59;4.97;;;1.80;;
75169;SDS011;63749;49.186;9.222;2023-03-23T04:52:25;2.97;;;2.00;;
75169;SDS011;63749;49.186;9.222;2023-03-23T04:54:53;4.28;;;2.00;;
75169;SDS011;63749;49.186;9.222;2023-03-23T04:57:18;3.20;;;2.00;;
75169;SDS011;63749;49.186;9.222;2023-03-23T04:59:44;4.10;;;2.13;;
75169;SDS011;63749;49.186;9.222;2023-03-23T05:02:10;5.10;;;1.90;;
75169;SDS011;63749;49.186;9.222;2023-03-23T05:04:36;4.13;;;2.00;;
75169;SDS011;63749;49.186;9.222;2023-03-23T05:07:02;4.82;;;1.70;;
75169;SDS011;63749;49.186;9.222;2023-03-23T05:09:28;4.03;;;2.00;;
75169;SDS011;63749;49.186;9.222;2023-03-23T05:11:54;5.53;;;1.87;;
75169;SDS011;63749;49.186;9.222;2023-03-23T05:14:19;5.83;;;2.00;;
75169;SDS011;63749;49.186;9.222;2023-03-23T05:16:46;5.50;;;1.90;;
75169;SDS011;63749;49.186;9.222;2023-03-23T05:19:13;4.15;;;2.10;;
75169;SDS011;63749;49.186;9.222;2023-03-23T05:21:39;6.63;;;3.20;;
75169;SDS011;63749;49.186;9.222;2023-03-23T05:24:05;5.57;;;3.30;;
75169;SDS011;63749;49.186;9.222;2023-03-23T05:26:31;8.52;;;3.40;;
75169;SDS011;63749;49.186;9.222;2023-03-23T05:28:57;5.95;;;2.95;;
75169;SDS011;63749;49.186;9.222;2023-03-23T05:31:23;6.15;;;2.42;;
75169;SDS011;63749;49.186;9.222;2023-03-23T05:33:49;4.73;;;2.30;;
75169;SDS011;63749;49.186;9.222;2023-03-23T05:36:15;6.18;;;2.20;;
75169;SDS011;63749;49.186;9.222;2023-03-23T05:38:41;5.77;;;2.50;;
75169;SDS011;63749;49.186;9.222;2023-03-23T05:41:12;7.28;;;2.70;;
75169;SDS011;63749;49.186;9.222;2023-03-23T05:43:38;6.50;;;2.80;;
75169;SDS011;63749;49.186;9.222;2023-03-23T05:46:06;9.02;;;2.90;;
75169;SDS011;63749;49.186;9.222;2023-03-23T05:48:32;5.50;;;2.53;;
75169;SDS011;63749;49.186;9.222;2023-03-23T05:50:58;5.70;;;2.47;;
75169;SDS011;63749;49.186;9.222;2023-03-23T05:53:23;7.20;;;2.40;;
75169;SDS011;63749;49.186;9.222;2023-03-23T05:55:49;4.35;;;2.10;;
75169;SDS011;63749;49.186;9.222;2023-03-23T05:58:14;4.00;;;2.00;;
75169;SDS011;63749;49.186;9.222;2023-03-23T06:00:40;5.13;;;2.17;;
75169;SDS011;63749;49.186;9.222;2023-03-23T06:03:06;3.63;;;1.90;;
75169;SDS011;63749;49.186;9.222;2023-03-23T06:05:31;3.90;;;2.10;;
75169;SDS011;63749;49.186;9.222;2023-03-23T06:07:57;12.02;;;1.90;;
75169;SDS011;63749;49.186;9.222;2023-03-23T06:10:23;4.87;;;2.00;;
75169;SDS011;63749;49.186;9.222;2023-03-23T06:12:48;3.10;;;1.80;;
75169;SDS011;63749;49.186;9.222;2023-03-23T06:15:15;2.67;;;1.70;;
75169;SDS011;63749;49.186;9.222;2023-03-23T06:17:40;3.40;;;1.70;;
75169;SDS011;63749;49.186;9.222;2023-03-23T06:20:07;5.03;;;1.93;;
75169;SDS011;63749;49.186;9.222;2023-03-23T06:22:34;3.53;;;1.70;;
75169;SDS011;63749;49.186;9.222;2023-03-23T06:25:03;7.68;;;1.52;;
75169;SDS011;63749;49.186;9.222;2023-03-23T06:27:30;4.15;;;1.75;;
75169;SDS011;63749;49.186;9.222;2023-03-23T06:29:56;4.80;;;1.70;;
75169;SDS011;63749;49.186;9.222;2023-03-23T06:32:21;4.75;;;1.80;;
75169;SDS011;63749;49.186;9.222;2023-03-23T06:34:47;4.40;;;1.70;;
75169;SDS011;63749;49.186;9.222;2023-03-23T06:37:13;3.42;;;1.70;;
75169;SDS011;63749;49.186;9.222;2023-03-23T06:39:38;3.57;;;1.87;;
75169;SDS011;63749;49.186;9.222;2023-03-23T06:42:04;5.13;;;2.00;;
75169;SDS011;63749;49.186;9.222;2023-03-23T06:44:30;5.63;;;1.92;;
75169;SDS011;63749;49.186;9.222;2023-03-23T06:46:55;3.23;;;1.70;;
75169;SDS011;63749;49.186;9.222;2023-03-23T06:49:21;4.73;;;2.10;;
75169;SDS011;63749;49.186;9.222;2023-03-23T06:51:47;4.45;;;1.90;;
75169;SDS011;63749;49.186;9.222;2023-03-23T06:54:12;7.70;;;2.00;;
75169;SDS011;63749;49.186;9.222;2023-03-23T06:56:37;7.23;;;2.00;;
75169;SDS011;63749;49.186;9.222;2023-03-23T06:59:03;6.97;;;2.07;;
75169;SDS011;63749;49.186;9.222;2023-03-23T07:01:28;10.17;;;2.10;;
75169;SDS011;63749;49.186;9.222;2023-03-23T07:03:54;5.37;;;1.93;;
75169;SDS011;63749;49.186;9.222;2023-03-23T07:06:20;9.53;;;2.20;;
75169;SDS011;63749;49.186;9.222;2023-03-23T07:08:46;9.75;;;2.22;;
75169;SDS011;63749;49.186;9.222;2023-03-23T07:11:12;6.20;;;1.88;;
75169;SDS011;63749;49.186;9.222;2023-03-23T07:13:37;7.60;;;1.80;;
75169;SDS011;63749;49.186;9.222;2023-03-23T07:16:06;5.33;;;1.80;;
75169;SDS011;63749;49.186;9.222;2023-03-23T07:18:32;3.58;;;1.83;;
75169;SDS011;63749;49.186;9.222;2023-03-23T07:20:57;3.83;;;1.80;;
75169;SDS011;63749;49.186;9.222;2023-03-23T07:23:23;5.63;;;1.90;;
75169;SDS011;63749;49.186;9.222;2023-03-23T07:25:48;4.73;;;1.87;;
75169;SDS011;63749;49.186;9.222;2023-03-23T07:28:14;8.77;;;2.13;;
75169;SDS011;63749;49.186;9.222;2023-03-23T07:30:40;5.70;;;2.10;;
75169;SDS011;63749;49.186;9.222;2023-03-23T07:33:06;3.60;;;1.90;;
75169;SDS011;63749;49.186;9.222;2023-03-23T07:35:33;8.70;;;2.10;;
75169;SDS011;63749;49.186;9.222;2023-03-23T07:37:59;3.10;;;1.90;;
75169;SDS011;63749;49.186;9.222;2023-03-23T07:40:25;3.60;;;1.83;;
75169;SDS011;63749;49.186;9.222;2023-03-23T07:42:52;4.65;;;1.92;;
75169;SDS011;63749;49.186;9.222;2023-03-23T07:45:20;3.13;;;2.00;;
75169;SDS011;63749;49.186;9.222;2023-03-23T07:47:45;4.45;;;2.20;;
75169;SDS011;63749;49.186;9.222;2023-03-23T07:50:10;4.53;;;1.90;;
75169;SDS011;63749;49.186;9.222;2023-03-23T07:52:37;4.00;;;1.95;;
75169;SDS011;63749;49.186;9.222;2023-03-23T07:55:03;4.03;;;1.98;;
75169;SDS011;63749;49.186;9.222;2023-03-23T07:57:30;3.47;;;2.00;;
75169;SDS011;63749;49.186;9.222;2023-03-23T07:59:57;3.33;;;1.73;;
75169;SDS011;63749;49.186;9.222;2023-03-23T08:02:23;3.38;;;1.80;;
75169;SDS011;63749;49.186;9.222;2023-03-23T08:04:49;2.73;;;1.67;;
75169;SDS011;63749;49.186;9.222;2023-03-23T08:07:14;2.40;;;1.80;;
75169;SDS011;63749;49.186;9.222;2023-03-23T08:09:41;10.47;;;2.00;;
75169;SDS011;63749;49.186;9.222;2023-03-23T08:12:07;3.47;;;1.98;;
75169;SDS011;63749;49.186;9.222;2023-03-23T08:14:32;3.43;;;2.00;;
75169;SDS011;63749;49.186;9.222;2023-03-23T08:16:58;3.63;;;1.90;;
75169;SDS011;63749;49.186;9.222;2023-03-23T08:19:23;2.77;;;1.83;;
75169;SDS011;63749;49.186;9.222;2023-03-23T08:21:49;5.57;;;2.07;;
75169;SDS011;63749;49.186;9.222;2023-03-23T08:24:15;5.57;;;2.00;;
75169;SDS011;63749;49.186;9.222;2023-03-23T08:26:41;3.40;;;2.00;;
75169;SDS011;63749;49.186;9.222;2023-03-23T08:29:07;3.23;;;2.07;;
75169;SDS011;63749;49.186;9.222;2023-03-23T08:31:33;4.63;;;2.00;;
75169;SDS011;63749;49.186;9.222;2023-03-23T08:34:03;5.78;;;2.00;;
75169;SDS011;63749;49.186;9.222;2023-03-23T08:36:33;11.40;;;1.88;;
75169;SDS011;63749;49.186;9.222;2023-03-23T08:38:59;4.35;;;1.88;;
75169;SDS011;63749;49.186;9.222;2023-03-23T08:41:25;9.20;;;2.13;;
75169;SDS011;63749;49.186;9.222;2023-03-23T08:43:51;4.47;;;1.90;;
75169;SDS011;63749;49.186;9.222;2023-03-23T08:46:17;5.10;;;1.98;;
75169;SDS011;63749;49.186;9.222;2023-03-23T08:48:44;2.63;;;1.73;;
75169;SDS011;63749;49.186;9.222;2023-03-23T08:51:10;3.60;;;2.20;;
75169;SDS011;63749;49.186;9.222;2023-03-23T08:53:35;5.53;;;1.87;;
75169;SDS011;63749;49.186;9.222;2023-03-23T08:56:05;3.43;;;1.83;;
75169;SDS011;63749;49.186;9.222;2023-03-23T08:58:31;3.15;;;2.00;;
75169;SDS011;63749;49.186;9.222;2023-03-23T09:00:57;3.08;;;1.92;;
75169;SDS011;63749;49.186;9.222;2023-03-23T09:03:23;2.80;;;1.80;;
75169;SDS011;63749;49.186;9.222;2023-03-23T09:05:48;4.13;;;1.83;;
75169;SDS011;63749;49.186;9.222;2023-03-23T09:08:13;6.57;;;2.00;;
75169;SDS011;63749;49.186;9.222;2023-03-23T09:10:39;4.82;;;1.92;;
75169;SDS011;63749;49.186;9.222;2023-03-23T09:13:04;3.47;;;1.87;;
75169;SDS011;63749;49.186;9.222;2023-03-23T09:15:30;4.10;;;2.13;;
75169;SDS011;63749;49.186;9.222;2023-03-23T09:17:56;4.00;;;2.65;;
75169;SDS011;63749;49.186;9.222;2023-03-23T09:20:23;4.93;;;3.10;;
75169;SDS011;63749;49.186;9.222;2023-03-23T09:22:51;3.57;;;2.27;;
75169;SDS011;63749;49.186;9.222;2023-03-23T09:25:19;3.38;;;2.40;;
75169;SDS011;63749;49.186;9.222;2023-03-23T09:27:48;4.18;;;2.45;;
75169;SDS011;63749;49.186;9.222;2023-03-23T09:30:17;3.83;;;2.30;;
75169;SDS011;63749;49.186;9.222;2023-03-23T09:32:44;6.05;;;2.70;;
75169;SDS011;63749;49.186;9.222;2023-03-23T09:35:10;3.67;;;2.43;;
75169;SDS011;63749;49.186;9.222;2023-03-23T09:37:38;8.27;;;3.30;;
75169;SDS011;63749;49.186;9.222;2023-03-23T09:40:05;6.47;;;3.03;;
75169;SDS011;63749;49.186;9.222;2023-03-23T09:50:48;6.43;;;2.80;;
75169;SDS011;63749;49.186;9.222;2023-03-23T09:53:22;8.50;;;3.10;;
75169;SDS011;63749;49.186;9.222;2023-03-23T09:55:53;9.13;;;2.80;;
75169;SDS011;63749;49.186;9.222;2023-03-23T09:58:24;6.57;;;2.80;;
75169;SDS011;63749;49.186;9.222;2023-03-23T10:03:52;5.20;;;2.20;;
75169;SDS011;63749;49.186;9.222;2023-03-23T10:06:26;6.07;;;2.40;;
75169;SDS011;63749;49.186;9.222;2023-03-23T10:08:52;6.03;;;2.67;;
75169;SDS011;63749;49.186;9.222;2023-03-23T10:16:19;3.97;;;2.10;;
75169;SDS011;63749;49.186;9.222;2023-03-23T10:18:49;4.13;;;2.57;;
75169;SDS011;63749;49.186;9.222;2023-03-23T10:21:45;4.50;;;2.58;;
75169;SDS011;63749;49.186;9.222;2023-03-23T10:24:16;3.70;;;2.33;;
75169;SDS011;63749;49.186;9.222;2023-03-23T10:26:55;4.45;;;2.47;;
75169;SDS011;63749;49.186;9.222;2023-03-23T10:29:31;5.45;;;2.65;;
75169;SDS011;63749;49.186;9.222;2023-03-23T10:32:15;5.97;;;2.90;;
75169;SDS011;63749;49.186;9.222;2023-03-23T10:34:54;6.20;;;2.40;;
75169;SDS011;63749;49.186;9.222;2023-03-23T10:37:25;7.72;;;2.50;;
75169;SDS011;63749;49.186;9.222;2023-03-23T10:39:54;4.57;;;2.20;;
75169;SDS011;63749;49.186;9.222;2023-03-23T10:42:23;3.55;;;2.10;;
75169;SDS011;63749;49.186;9.222;2023-03-23T10:44:59;9.80;;;2.47;;
75169;SDS011;63749;49.186;9.222;2023-03-23T10:47:34;4.05;;;2.40;;
75169;SDS011;63749;49.186;9.222;2023-03-23T10:50:10;3.33;;;2.08;;
75169;SDS011;63749;49.186;9.222;2023-03-23T10:52:41;3.95;;;2.33;;
75169;SDS011;63749;49.186;9.222;2023-03-23T10:55:09;5.05;;;2.25;;
75169;SDS011;63749;49.186;9.222;2023-03-23T10:57:38;5.97;;;2.20;;
75169;SDS011;63749;49.186;9.222;2023-03-23T11:03:02;4.07;;;2.08;;
75169;SDS011;63749;49.186;9.222;2023-03-23T11:05:50;4.80;;;2.50;;
75169;SDS011;63749;49.186;9.222;2023-03-23T11:08:36;3.22;;;2.15;;
75169;SDS011;63749;49.186;9.222;2023-03-23T11:13:49;4.63;;;2.10;;
75169;SDS011;63749;49.186;9.222;2023-03-23T11:16:26;3.40;;;2.17;;
75169;SDS011;63749;49.186;9.222;2023-03-23T11:18:53;5.05;;;2.10;;
75169;SDS011;63749;49.186;9.222;2023-03-23T11:21:20;4.22;;;2.20;;
75169;SDS011;63749;49.186;9.222;2023-03-23T11:23:49;3.30;;;2.00;;
75169;SDS011;63749;49.186;9.222;2023-03-23T11:26:27;6.47;;;1.95;;
75169;SDS011;63749;49.186;9.222;2023-03-23T11:29:13;4.25;;;1.83;;
75169;SDS011;63749;49.186;9.222;2023-03-23T11:31:45;2.25;;;1.70;;
75169;SDS011;63749;49.186;9.222;2023-03-23T11:34:21;2.85;;;1.70;;
75169;SDS011;63749;49.186;9.222;2023-03-23T11:36:53;2.40;;;1.60;;
75169;SDS011;63749;49.186;9.222;2023-03-23T11:39:21;3.75;;;1.80;;
75169;SDS011;63749;49.186;9.222;2023-03-23T11:41:59;3.10;;;1.63;;
75169;SDS011;63749;49.186;9.222;2023-03-23T11:44:33;2.70;;;1.70;;
75169;SDS011;63749;49.186;9.222;2023-03-23T11:47:04;3.22;;;2.00;;
75169;SDS011;63749;49.186;9.222;2023-03-23T11:49:50;2.93;;;1.70;;
75169;SDS011;63749;49.186;9.222;2023-03-23T11:55:28;4.10;;;1.60;;
75169;SDS011;63749;49.186;9.222;2023-03-23T11:58:07;2.88;;;1.75;;
75169;SDS011;63749;49.186;9.222;2023-03-23T12:00:43;5.95;;;1.92;;
75169;SDS011;63749;49.186;9.222;2023-03-23T12:03:15;4.10;;;1.80;;
75169;SDS011;63749;49.186;9.222;2023-03-23T12:06:05;2.58;;;1.80;;
75169;SDS011;63749;49.186;9.222;2023-03-23T12:19:27;2.50;;;1.98;;
75169;SDS011;63749;49.186;9.222;2023-03-23T12:27:29;4.70;;;1.90;;
75169;SDS011;63749;49.186;9.222;2023-03-23T12:35:48;5.72;;;1.98;;
75169;SDS011;63749;49.186;9.222;2023-03-23T12:41:21;3.63;;;2.00;;
75169;SDS011;63749;49.186;9.222;2023-03-23T12:44:27;4.57;;;1.80;;
75169;SDS011;63749;49.186;9.222;2023-03-23T12:46:53;4.47;;;2.00;;
75169;SDS011;63749;49.186;9.222;2023-03-23T12:49:34;7.93;;;1.90;;
75169;SDS011;63749;49.186;9.222;2023-03-23T12:54:42;3.13;;;1.65;;
75169;SDS011;63749;49.186;9.222;2023-03-23T13:00:29;3.58;;;1.65;;
75169;SDS011;63749;49.186;9.222;2023-03-23T13:05:54;6.00;;;1.70;;
75169;SDS011;63749;49.186;9.222;2023-03-23T13:08:51;2.60;;;1.80;;
75169;SDS011;63749;49.186;9.222;2023-03-23T13:11:25;2.47;;;1.50;;
75169;SDS011;63749;49.186;9.222;2023-03-23T13:19:56;3.35;;;1.67;;
75169;SDS011;63749;49.186;9.222;2023-03-23T13:22:26;3.85;;;1.80;;
75169;SDS011;63749;49.186;9.222;2023-03-23T13:24:55;3.10;;;2.03;;
75169;SDS011;63749;49.186;9.222;2023-03-23T13:27:24;3.85;;;2.05;;
75169;SDS011;63749;49.186;9.222;2023-03-23T13:29:53;5.30;;;2.03;;
75169;SDS011;63749;49.186;9.222;2023-03-23T13:32:20;4.68;;;2.20;;
75169;SDS011;63749;49.186;9.222;2023-03-23T13:34:48;3.42;;;1.80;;
75169;SDS011;63749;49.186;9.222;2023-03-23T13:37:26;3.27;;;2.03;;
75169;SDS011;63749;49.186;9.222;2023-03-23T13:39:53;4.43;;;2.30;;
75169;SDS011;63749;49.186;9.222;2023-03-23T13:42:23;3.70;;;2.20;;
75169;SDS011;63749;49.186;9.222;2023-03-23T13:44:57;3.33;;;1.90;;
75169;SDS011;63749;49.186;9.222;2023-03-23T13:47:39;4.53;;;2.60;;
75169;SDS011;63749;49.186;9.222;2023-03-23T14:00:50;3.00;;;2.10;;
75169;SDS011;63749;49.186;9.222;2023-03-23T14:03:37;4.43;;;2.45;;
75169;SDS011;63749;49.186;9.222;2023-03-23T14:06:05;4.78;;;2.47;;
75169;SDS011;63749;49.186;9.222;2023-03-23T14:08:41;5.67;;;2.53;;
75169;SDS011;63749;49.186;9.222;2023-03-23T14:11:13;3.42;;;2.30;;
75169;SDS011;63749;49.186;9.222;2023-03-23T14:14:04;4.70;;;2.40;;
75169;SDS011;63749;49.186;9.222;2023-03-23T14:19:03;4.25;;;2.50;;
75169;SDS011;63749;49.186;9.222;2023-03-23T14:21:40;5.17;;;2.70;;
75169;SDS011;63749;49.186;9.222;2023-03-23T14:24:10;5.30;;;2.67;;
75169;SDS011;63749;49.186;9.222;2023-03-23T14:26:40;4.57;;;2.65;;
75169;SDS011;63749;49.186;9.222;2023-03-23T14:29:09;6.75;;;2.80;;
75169;SDS011;63749;49.186;9.222;2023-03-23T14:31:35;8.13;;;3.45;;
75169;SDS011;63749;49.186;9.222;2023-03-23T14:34:03;8.00;;;3.10;;
75169;SDS011;63749;49.186;9.222;2023-03-23T14:36:31;6.70;;;3.03;;
75169;SDS011;63749;49.186;9.222;2023-03-23T14:39:22;7.30;;;3.00;;
75169;SDS011;63749;49.186;9.222;2023-03-23T14:41:53;5.65;;;2.72;;
75169;SDS011;63749;49.186;9.222;2023-03-23T14:45:05;4.35;;;2.80;;
75169;SDS011;63749;49.186;9.222;2023-03-23T14:49:55;5.00;;;2.80;;
75169;SDS011;63749;49.186;9.222;2023-03-23T14:52:23;5.80;;;2.60;;
75169;SDS011;63749;49.186;9.222;2023-03-23T14:54:51;3.55;;;2.70;;
75169;SDS011;63749;49.186;9.222;2023-03-23T14:59:51;4.45;;;2.80;;
75169;SDS011;63749;49.186;9.222;2023-03-23T15:02:20;6.43;;;2.90;;
75169;SDS011;63749;49.186;9.222;2023-03-23T15:04:54;6.20;;;2.80;;
75169;SDS011;63749;49.186;9.222;2023-03-23T15:07:26;5.72;;;2.88;;
75169;SDS011;63749;49.186;9.222;2023-03-23T15:09:56;4.63;;;2.88;;
75169;SDS011;63749;49.186;9.222;2023-03-23T15:12:23;4.13;;;2.53;;
75169;SDS011;63749;49.186;9.222;2023-03-23T15:14:53;4.53;;;2.60;;
75169;SDS011;63749;49.186;9.222;2023-03-23T15:17:30;5.07;;;2.40;;
75169;SDS011;63749;49.186;9.222;2023-03-23T15:20:06;4.25;;;2.83;;
75169;SDS011;63749;49.186;9.222;2023-03-23T15:22:33;4.25;;;2.92;;
75169;SDS011;63749;49.186;9.222;2023-03-23T15:27:40;6.47;;;2.80;;
75169;SDS011;63749;49.186;9.222;2023-03-23T15:30:15;6.38;;;3.22;;
75169;SDS011;63749;49.186;9.222;2023-03-23T15:32:47;6.70;;;3.03;;
75169;SDS011;63749;49.186;9.222;2023-03-23T15:35:20;5.43;;;2.95;;
75169;SDS011;63749;49.186;9.222;2023-03-23T15:40:27;6.07;;;3.10;;
75169;SDS011;63749;49.186;9.222;2023-03-23T15:48:51;7.88;;;3.50;;
75169;SDS011;63749;49.186;9.222;2023-03-23T15:51:25;5.22;;;3.22;;
75169;SDS011;63749;49.186;9.222;2023-03-23T15:53:53;7.03;;;3.90;;
75169;SDS011;63749;49.186;9.222;2023-03-23T15:56:20;8.43;;;3.60;;
75169;SDS011;63749;49.186;9.222;2023-03-23T15:58:45;7.43;;;3.40;;
75169;SDS011;63749;49.186;9.222;2023-03-23T16:01:12;7.28;;;3.00;;
75169;SDS011;63749;49.186;9.222;2023-03-23T16:06:09;7.03;;;3.15;;
75169;SDS011;63749;49.186;9.222;2023-03-23T16:08:36;6.00;;;3.00;;
75169;SDS011;63749;49.186;9.222;2023-03-23T16:11:05;5.77;;;3.13;;
75169;SDS011;63749;49.186;9.222;2023-03-23T16:13:31;5.13;;;3.15;;
75169;SDS011;63749;49.186;9.222;2023-03-23T16:15:56;9.87;;;3.37;;
75169;SDS011;63749;49.186;9.222;2023-03-23T16:18:21;4.93;;;3.50;;
75169;SDS011;63749;49.186;9.222;2023-03-23T16:20:48;6.63;;;3.33;;
75169;SDS011;63749;49.186;9.222;2023-03-23T16:23:14;7.28;;;3.30;;
75169;SDS011;63749;49.186;9.222;2023-03-23T16:25:40;6.30;;;3.40;;
75169;SDS011;63749;49.186;9.222;2023-03-23T16:28:07;6.33;;;3.60;;
75169;SDS011;63749;49.186;9.222;2023-03-23T16:30:35;6.95;;;3.42;;
75169;SDS011;63749;49.186;9.222;2023-03-23T16:33:00;6.23;;;3.13;;
75169;SDS011;63749;49.186;9.222;2023-03-23T16:35:26;5.63;;;3.20;;
75169;SDS011;63749;49.186;9.222;2023-03-23T16:37:52;6.40;;;3.53;;
75169;SDS011;63749;49.186;9.222;2023-03-23T16:40:20;7.05;;;3.50;;
75169;SDS011;63749;49.186;9.222;2023-03-23T16:42:46;6.20;;;3.40;;
75169;SDS011;63749;49.186;9.222;2023-03-23T16:45:12;5.82;;;3.20;;
75169;SDS011;63749;49.186;9.222;2023-03-23T16:47:39;9.25;;;3.80;;
75169;SDS011;63749;49.186;9.222;2023-03-23T16:50:05;7.18;;;3.90;;
75169;SDS011;63749;49.186;9.222;2023-03-23T16:52:35;6.05;;;3.65;;
75169;SDS011;63749;49.186;9.222;2023-03-23T16:55:00;5.27;;;3.30;;
75169;SDS011;63749;49.186;9.222;2023-03-23T16:57:26;5.33;;;3.40;;